createdAt,value
2022-12-27T00:00:35.066Z,0.90
2022-12-27T00:01:37.103Z,0.65
2022-12-27T00:02:38.674Z,0.60
2022-12-27T00:03:40.826Z,0.50
2022-12-27T00:04:42.327Z,0.60
2022-12-27T00:05:45.658Z,0.60
2022-12-27T00:06:47.368Z,0.70
2022-12-27T00:07:48.829Z,0.65
2022-12-27T00:08:50.813Z,0.80
2022-12-27T00:09:53.667Z,1.08
2022-12-27T00:10:55.500Z,0.68
2022-12-27T00:11:59.937Z,0.70
2022-12-27T00:13:01.704Z,0.70
2022-12-27T00:14:05.302Z,0.80
2022-12-27T00:15:07.398Z,0.55
2022-12-27T00:16:12.926Z,0.60
2022-12-27T00:17:14.410Z,0.60
2022-12-27T00:18:15.828Z,0.60
2022-12-27T00:19:17.291Z,0.77
2022-12-27T00:20:18.731Z,0.70
2022-12-27T00:21:21.577Z,0.65
2022-12-27T00:22:23.078Z,0.73
2022-12-27T00:23:24.985Z,0.70
2022-12-27T00:24:26.524Z,0.60
2022-12-27T00:25:28.506Z,0.80
2022-12-27T00:26:31.867Z,0.73
2022-12-27T00:27:33.298Z,0.70
2022-12-27T00:28:35.636Z,0.80
2022-12-27T00:29:37.098Z,0.60
2022-12-27T00:30:38.855Z,0.70
2022-12-27T00:31:40.365Z,0.70
2022-12-27T00:32:41.846Z,0.60
2022-12-27T00:33:45.273Z,0.68
2022-12-27T00:34:46.675Z,0.70
2022-12-27T00:35:48.404Z,0.80
2022-12-27T00:36:49.863Z,0.88
2022-12-27T00:37:51.294Z,0.60
2022-12-27T00:38:53.959Z,0.80
2022-12-27T00:39:55.396Z,0.80
2022-12-27T00:40:57.159Z,0.63
2022-12-27T00:41:58.600Z,0.90
2022-12-27T00:43:00.089Z,0.82
2022-12-27T00:44:01.602Z,0.98
2022-12-27T00:45:03.117Z,0.93
2022-12-27T00:46:06.956Z,0.70
2022-12-27T00:47:08.481Z,0.70
2022-12-27T00:48:09.953Z,0.90
2022-12-27T00:49:11.426Z,0.70
2022-12-27T00:50:13.219Z,0.70
2022-12-27T00:51:18.063Z,0.70
2022-12-27T00:52:19.534Z,0.70
2022-12-27T00:53:20.940Z,0.60
2022-12-27T00:54:22.345Z,0.65
2022-12-27T00:55:24.196Z,0.93
2022-12-27T00:56:28.427Z,0.80
2022-12-27T00:57:29.844Z,0.77
2022-12-27T00:58:31.307Z,0.70
2022-12-27T00:59:32.743Z,0.90
2022-12-27T01:00:34.642Z,0.80
2022-12-27T01:01:36.899Z,0.77
2022-12-27T01:02:38.612Z,0.80
2022-12-27T01:03:40.433Z,0.93
2022-12-27T01:04:41.932Z,0.50
2022-12-27T01:05:43.791Z,0.77
2022-12-27T01:06:45.209Z,0.70
2022-12-27T01:07:46.638Z,0.80
2022-12-27T01:08:48.763Z,0.70
2022-12-27T01:09:50.771Z,0.80
2022-12-27T01:10:52.200Z,0.70
2022-12-27T01:11:53.651Z,0.73
2022-12-27T01:12:55.294Z,1.20
2022-12-27T01:14:01.977Z,0.70
2022-12-27T01:15:06.083Z,0.60
2022-12-27T01:16:14.710Z,0.80
2022-12-27T01:17:16.211Z,0.70
2022-12-27T01:18:17.697Z,0.80
2022-12-27T01:19:19.144Z,0.80
2022-12-27T01:20:20.991Z,1.00
2022-12-27T01:21:25.051Z,0.93
2022-12-27T01:22:26.546Z,0.90
2022-12-27T01:23:31.911Z,0.90
2022-12-27T01:24:34.784Z,0.70
2022-12-27T01:25:36.356Z,0.80
2022-12-27T01:26:37.793Z,0.98
2022-12-27T01:27:39.333Z,1.00
2022-12-27T01:28:40.806Z,0.70
2022-12-27T01:29:42.753Z,0.80
2022-12-27T01:30:44.379Z,0.80
2022-12-27T01:31:45.975Z,0.80
2022-12-27T01:32:47.407Z,0.55
2022-12-27T01:33:49.184Z,0.90
2022-12-27T01:34:51.369Z,0.80
2022-12-27T01:35:52.785Z,0.70
2022-12-27T01:36:54.195Z,0.88
2022-12-27T01:37:55.627Z,0.88
2022-12-27T01:38:58.458Z,1.00
2022-12-27T01:39:59.874Z,0.70
2022-12-27T01:41:21.276Z,0.73
2022-12-27T01:42:41.388Z,0.75
2022-12-27T01:43:42.788Z,0.80
2022-12-27T01:44:50.221Z,1.00
2022-12-27T01:45:51.732Z,0.90
2022-12-27T01:46:53.219Z,0.90
2022-12-27T01:48:11.483Z,0.75
2022-12-27T01:49:12.905Z,1.00
2022-12-27T01:50:27.201Z,0.80
2022-12-27T01:51:28.644Z,0.90
2022-12-27T01:52:41.262Z,0.90
2022-12-27T01:53:47.777Z,0.73
2022-12-27T01:54:49.220Z,1.00
2022-12-27T01:56:01.682Z,1.00
2022-12-27T01:57:04.396Z,0.77
2022-12-27T01:58:52.389Z,0.75
2022-12-27T01:59:53.902Z,0.60
2022-12-27T02:00:56.886Z,0.63
2022-12-27T02:03:03.506Z,0.70
2022-12-27T02:04:09.216Z,1.00
2022-12-27T02:05:13.191Z,0.80
2022-12-27T02:06:16.055Z,0.80
2022-12-27T02:07:20.519Z,1.00
2022-12-27T02:08:40.584Z,0.70
2022-12-27T02:09:48.098Z,0.70
2022-12-27T02:10:50.546Z,0.65
2022-12-27T02:11:56.814Z,1.08
2022-12-27T02:12:59.466Z,1.02
2022-12-27T02:14:01.908Z,0.77
2022-12-27T02:15:04.564Z,0.77
2022-12-27T02:16:19.017Z,0.70
2022-12-27T02:17:24.157Z,0.63
2022-12-27T02:18:25.778Z,0.80
2022-12-27T02:19:39.350Z,0.65
2022-12-27T02:21:02.882Z,0.85
2022-12-27T02:22:14.242Z,0.80
2022-12-27T02:24:03.370Z,0.70
2022-12-27T02:25:25.382Z,0.63
2022-12-27T02:26:44.893Z,0.88
2022-12-27T02:28:23.642Z,0.80
2022-12-27T02:29:37.833Z,0.75
2022-12-27T02:30:40.296Z,0.70
2022-12-27T02:31:54.225Z,0.70
2022-12-27T02:33:02.027Z,0.70
2022-12-27T02:34:10.330Z,0.73
2022-12-27T02:35:30.510Z,0.70
2022-12-27T02:36:35.697Z,0.93
2022-12-27T02:37:47.217Z,0.80
2022-12-27T02:38:53.792Z,0.80
2022-12-27T02:40:18.739Z,0.70
2022-12-27T02:41:38.992Z,0.70
2022-12-27T02:42:59.332Z,0.90
2022-12-27T02:44:19.235Z,0.90
2022-12-27T02:45:43.489Z,0.73
2022-12-27T02:47:04.454Z,1.10
2022-12-27T02:48:31.996Z,0.70
2022-12-27T02:49:54.869Z,0.70
2022-12-27T02:51:34.614Z,0.80
2022-12-27T02:53:00.775Z,0.90
2022-12-27T02:54:32.951Z,0.70
2022-12-27T02:56:05.380Z,0.80
2022-12-27T02:57:13.144Z,0.82
2022-12-27T02:58:22.008Z,1.10
2022-12-27T02:59:59.438Z,0.70
2022-12-27T03:01:42.567Z,0.93
2022-12-27T03:03:20.909Z,0.68
2022-12-27T03:04:49.944Z,0.75
2022-12-27T03:06:29.207Z,0.95
2022-12-27T03:07:51.596Z,0.70
2022-12-27T03:09:49.354Z,0.70
2022-12-27T03:11:18.531Z,0.70
2022-12-27T03:13:06.147Z,0.77
2022-12-27T03:14:37.305Z,0.90
2022-12-27T03:15:57.469Z,0.90
2022-12-27T03:17:06.543Z,0.80
2022-12-27T03:18:15.750Z,0.70
2022-12-27T03:21:01.390Z,1.00
2022-12-27T03:22:22.415Z,0.90
2022-12-27T03:23:44.856Z,0.80
2022-12-27T03:25:06.168Z,0.60
2022-12-27T03:26:09.912Z,0.90
2022-12-27T03:27:22.490Z,0.60
2022-12-27T03:28:47.057Z,0.80
2022-12-27T03:30:10.498Z,0.80
2022-12-27T03:31:42.329Z,0.90
2022-12-27T03:33:14.373Z,1.10
2022-12-27T03:34:36.001Z,0.90
2022-12-27T03:35:43.327Z,0.70
2022-12-27T03:37:03.407Z,1.00
2022-12-27T03:38:07.200Z,0.70
2022-12-27T03:39:28.355Z,0.70
2022-12-27T03:41:15.216Z,0.90
2022-12-27T03:42:44.271Z,0.70
2022-12-27T03:43:45.805Z,0.93
2022-12-27T03:44:47.791Z,0.80
2022-12-27T03:46:36.082Z,0.82
2022-12-27T03:47:54.545Z,0.90
2022-12-27T03:49:38.888Z,0.80
2022-12-27T03:50:48.875Z,0.90
2022-12-27T03:52:11.776Z,0.80
2022-12-27T03:53:31.781Z,1.10
2022-12-27T03:54:36.871Z,1.10
2022-12-27T03:55:39.058Z,1.00
2022-12-27T03:56:42.576Z,0.65
2022-12-27T03:57:44.196Z,0.90
2022-12-27T03:58:45.734Z,0.95
2022-12-27T03:59:47.857Z,0.90
2022-12-27T04:00:49.369Z,1.00
2022-12-27T04:01:50.908Z,1.20
2022-12-27T04:02:52.535Z,0.90
2022-12-27T04:03:54.140Z,0.90
2022-12-27T04:04:55.911Z,0.85
2022-12-27T04:05:57.325Z,0.80
2022-12-27T04:06:58.788Z,0.93
2022-12-27T04:08:18.495Z,1.02
2022-12-27T04:09:38.812Z,1.23
2022-12-27T04:10:58.915Z,0.80
2022-12-27T04:12:18.807Z,0.95
2022-12-27T04:13:38.873Z,1.30
2022-12-27T04:14:59.548Z,0.90
2022-12-27T04:16:19.420Z,1.27
2022-12-27T04:17:39.446Z,1.13
2022-12-27T04:18:59.306Z,1.00
2022-12-27T04:20:19.094Z,0.80
2022-12-27T04:21:38.831Z,1.00
2022-12-27T04:22:58.533Z,1.00
2022-12-27T04:24:18.416Z,1.40
2022-12-27T04:25:38.580Z,0.85
2022-12-27T04:26:58.443Z,0.93
2022-12-27T04:28:18.203Z,1.33
2022-12-27T04:29:38.158Z,1.05
2022-12-27T04:30:58.358Z,0.90
2022-12-27T04:32:18.103Z,1.00
2022-12-27T04:33:37.888Z,0.90
2022-12-27T04:34:45.096Z,0.90
2022-12-27T04:35:46.837Z,1.00
2022-12-27T04:36:48.556Z,1.00
2022-12-27T04:37:50.030Z,0.90
2022-12-27T04:38:51.457Z,0.90
2022-12-27T04:40:11.371Z,0.90
2022-12-27T04:41:31.284Z,1.00
2022-12-27T04:42:51.101Z,0.90
2022-12-27T04:44:10.915Z,0.80
2022-12-27T04:45:31.441Z,0.90
2022-12-27T04:46:51.856Z,0.93
2022-12-27T04:48:11.945Z,0.88
2022-12-27T04:49:39.405Z,1.02
2022-12-27T04:50:59.617Z,0.82
2022-12-27T04:52:19.914Z,1.23
2022-12-27T04:53:40.205Z,0.90
2022-12-27T04:54:56.861Z,1.33
2022-12-27T04:55:58.538Z,0.90
2022-12-27T04:56:59.945Z,1.00
2022-12-27T04:58:01.424Z,0.80
2022-12-27T04:59:21.502Z,1.60
2022-12-27T05:00:44.614Z,1.00
2022-12-27T05:02:04.238Z,0.88
2022-12-27T05:03:16.505Z,0.80
2022-12-27T05:04:19.080Z,0.90
2022-12-27T05:05:21.884Z,1.20
2022-12-27T05:06:23.324Z,1.00
2022-12-27T05:07:43.573Z,1.40
2022-12-27T05:09:03.802Z,1.67
2022-12-27T05:10:25.228Z,1.40
2022-12-27T05:11:45.083Z,1.00
2022-12-27T05:13:04.897Z,0.93
2022-12-27T05:14:10.790Z,1.10
2022-12-27T05:15:12.224Z,1.00
2022-12-27T05:16:14.928Z,1.17
2022-12-27T05:17:16.358Z,1.40
2022-12-27T05:18:17.816Z,0.90
2022-12-27T05:19:19.274Z,0.95
2022-12-27T05:20:21.045Z,0.80
2022-12-27T05:21:22.654Z,1.20
2022-12-27T05:22:42.898Z,0.80
2022-12-27T05:24:05.717Z,1.00
2022-12-27T05:25:28.177Z,0.80
2022-12-27T05:26:31.097Z,1.13
2022-12-27T05:27:32.542Z,1.10
2022-12-27T05:28:33.999Z,0.95
2022-12-27T05:29:36.036Z,0.95
2022-12-27T05:30:41.101Z,1.20
2022-12-27T05:31:42.672Z,0.90
2022-12-27T05:32:44.313Z,1.00
2022-12-27T05:33:45.879Z,0.93
2022-12-27T05:34:47.291Z,0.85
2022-12-27T05:35:48.716Z,0.98
2022-12-27T05:36:50.155Z,0.90
2022-12-27T05:37:55.149Z,1.10
2022-12-27T05:38:58.625Z,1.08
2022-12-27T05:40:00.052Z,0.90
2022-12-27T05:41:02.838Z,1.00
2022-12-27T05:42:04.426Z,1.10
2022-12-27T05:43:05.910Z,0.88
2022-12-27T05:44:07.836Z,1.10
2022-12-27T05:45:09.476Z,0.90
2022-12-27T05:46:17.507Z,1.25
2022-12-27T05:47:19.015Z,1.20
2022-12-27T05:48:21.603Z,1.30
2022-12-27T05:49:23.044Z,0.98
2022-12-27T05:50:24.883Z,1.10
2022-12-27T05:51:26.337Z,1.05
2022-12-27T05:52:29.638Z,1.00
2022-12-27T05:53:31.054Z,0.88
2022-12-27T05:54:32.482Z,1.13
2022-12-27T05:55:33.944Z,0.90
2022-12-27T05:56:37.257Z,1.30
2022-12-27T05:57:39.164Z,1.63
2022-12-27T05:58:41.105Z,1.10
2022-12-27T05:59:42.552Z,1.10
2022-12-27T06:00:44.378Z,1.10
2022-12-27T06:01:46.015Z,1.17
2022-12-27T06:02:47.757Z,1.50
2022-12-27T06:03:49.281Z,1.00
2022-12-27T06:04:50.709Z,0.90
2022-12-27T06:05:52.695Z,1.02
2022-12-27T06:06:54.197Z,0.90
2022-12-27T06:07:55.679Z,1.08
2022-12-27T06:08:57.515Z,1.30
2022-12-27T06:09:58.922Z,0.98
2022-12-27T06:11:11.576Z,1.00
2022-12-27T06:12:12.967Z,1.10
2022-12-27T06:13:14.413Z,0.90
2022-12-27T06:14:15.835Z,1.10
2022-12-27T06:15:17.253Z,1.20
2022-12-27T06:16:20.667Z,1.25
2022-12-27T06:17:22.093Z,1.10
2022-12-27T06:18:23.493Z,1.10
2022-12-27T06:19:25.027Z,1.20
2022-12-27T06:20:27.442Z,1.27
2022-12-27T06:21:28.924Z,1.20
2022-12-27T06:22:30.325Z,1.20
2022-12-27T06:23:34.389Z,1.20
2022-12-27T06:24:35.808Z,1.10
2022-12-27T06:25:40.380Z,1.20
2022-12-27T06:26:42.804Z,1.17
2022-12-27T06:27:44.313Z,0.90
2022-12-27T06:28:45.812Z,1.20
2022-12-27T06:29:47.217Z,1.30
2022-12-27T06:30:49.448Z,1.10
2022-12-27T06:31:51.085Z,1.30
2022-12-27T06:32:52.518Z,1.20
2022-12-27T06:33:54.710Z,1.33
2022-12-27T06:34:56.152Z,1.20
2022-12-27T06:35:59.186Z,1.20
2022-12-27T06:38:01.955Z,1.35
2022-12-27T06:39:03.514Z,0.90
2022-12-27T06:40:05.579Z,1.30
2022-12-27T06:41:12.646Z,1.42
2022-12-27T06:42:14.085Z,1.40
2022-12-27T06:43:15.588Z,1.30
2022-12-27T06:44:16.988Z,1.30
2022-12-27T06:45:18.563Z,1.30
2022-12-27T06:46:20.440Z,1.20
2022-12-27T06:47:21.911Z,1.10
2022-12-27T06:48:24.212Z,1.65
2022-12-27T06:49:25.930Z,1.10
2022-12-27T06:50:27.475Z,1.30
2022-12-27T06:51:29.227Z,1.30
2022-12-27T06:52:30.645Z,1.27
2022-12-27T06:53:32.083Z,2.03
2022-12-27T06:54:33.580Z,1.10
2022-12-27T06:55:34.992Z,1.08
2022-12-27T06:56:37.291Z,1.10
2022-12-27T06:57:38.699Z,1.30
2022-12-27T06:58:40.113Z,1.10
2022-12-27T06:59:41.540Z,1.33
2022-12-27T07:00:43.060Z,1.20
2022-12-27T07:01:44.875Z,1.02
2022-12-27T07:02:46.400Z,1.60
2022-12-27T07:03:51.876Z,1.02
2022-12-27T07:04:53.311Z,1.38
2022-12-27T07:05:54.704Z,1.50
2022-12-27T07:06:56.163Z,1.30
2022-12-27T07:07:57.621Z,1.10
2022-12-27T07:09:00.740Z,1.20
2022-12-27T07:10:02.765Z,1.27
2022-12-27T07:11:06.764Z,1.00
2022-12-27T07:12:08.214Z,1.25
2022-12-27T07:13:09.626Z,1.40
2022-12-27T07:14:11.126Z,1.42
2022-12-27T07:15:12.558Z,1.40
2022-12-27T07:16:16.968Z,1.15
2022-12-27T07:17:18.434Z,1.65
2022-12-27T07:18:19.893Z,1.33
2022-12-27T07:19:21.380Z,1.00
2022-12-27T07:20:22.832Z,1.55
2022-12-27T07:21:27.391Z,2.00
2022-12-27T07:22:28.846Z,1.80
2022-12-27T07:23:30.252Z,1.38
2022-12-27T07:24:33.268Z,1.30
2022-12-27T07:26:36.420Z,1.60
2022-12-27T07:27:38.053Z,1.73
2022-12-27T07:28:40.409Z,1.40
2022-12-27T07:29:45.523Z,1.15
2022-12-27T07:30:47.331Z,1.40
2022-12-27T07:31:49.206Z,1.50
2022-12-27T07:32:50.746Z,1.42
2022-12-27T07:33:53.082Z,1.30
2022-12-27T07:34:54.621Z,1.13
2022-12-27T07:36:00.780Z,1.23
2022-12-27T07:37:02.255Z,1.40
2022-12-27T07:38:03.684Z,1.20
2022-12-27T07:39:06.619Z,1.35
2022-12-27T07:40:08.679Z,1.65
2022-12-27T07:41:11.478Z,1.70
2022-12-27T07:42:13.313Z,1.40
2022-12-27T07:43:14.727Z,1.40
2022-12-27T07:44:16.281Z,1.30
2022-12-27T07:45:17.971Z,6.60
2022-12-27T07:46:22.387Z,9.45
2022-12-27T07:47:23.807Z,3.42
2022-12-27T07:48:25.237Z,2.92
2022-12-27T07:49:26.641Z,2.60
2022-12-27T07:50:28.173Z,2.50
2022-12-27T07:51:30.440Z,2.10
2022-12-27T07:52:32.034Z,1.67
2022-12-27T07:53:33.843Z,1.30
2022-12-27T07:54:35.330Z,1.40
2022-12-27T07:55:36.777Z,1.23
2022-12-27T07:56:38.595Z,1.30
2022-12-27T07:57:40.114Z,1.65
2022-12-27T07:58:43.897Z,1.15
2022-12-27T07:59:45.321Z,1.27
2022-12-27T08:00:49.200Z,1.48
2022-12-27T08:02:06.065Z,1.77
2022-12-27T08:03:07.740Z,1.38
2022-12-27T08:04:09.195Z,1.40
2022-12-27T08:05:10.688Z,1.40
2022-12-27T08:06:38.174Z,1.30
2022-12-27T08:07:41.284Z,1.65
2022-12-27T08:09:47.378Z,1.40
2022-12-27T08:10:48.891Z,1.77
2022-12-27T08:11:50.666Z,1.60
2022-12-27T08:12:52.071Z,1.40
2022-12-27T08:13:53.925Z,1.58
2022-12-27T08:14:55.395Z,1.65
2022-12-27T08:15:56.871Z,1.30
2022-12-27T08:17:05.504Z,1.80
2022-12-27T08:18:07.088Z,1.50
2022-12-27T08:19:08.825Z,1.33
2022-12-27T08:20:14.674Z,1.85
2022-12-27T08:21:16.699Z,1.13
2022-12-27T08:22:18.727Z,1.50
2022-12-27T08:23:20.431Z,1.70
2022-12-27T08:24:21.907Z,1.70
2022-12-27T08:25:23.454Z,1.65
2022-12-27T08:26:25.248Z,1.38
2022-12-27T08:27:26.958Z,1.45
2022-12-27T08:28:31.503Z,1.50
2022-12-27T08:29:33.331Z,1.83
2022-12-27T08:30:35.096Z,1.45
2022-12-27T08:31:36.854Z,1.80
2022-12-27T08:32:38.304Z,1.83
2022-12-27T08:33:41.855Z,2.00
2022-12-27T08:34:43.337Z,1.92
2022-12-27T08:35:54.320Z,1.70
2022-12-27T08:36:57.009Z,1.80
2022-12-27T08:38:02.295Z,1.73
2022-12-27T08:39:03.818Z,2.08
2022-12-27T08:40:05.775Z,1.50
2022-12-27T08:41:07.583Z,1.70
2022-12-27T08:42:13.139Z,1.60
2022-12-27T08:43:14.741Z,1.63
2022-12-27T08:44:16.170Z,1.33
2022-12-27T08:45:17.590Z,1.80
2022-12-27T08:46:19.932Z,1.48
2022-12-27T08:48:24.242Z,1.60
2022-12-27T08:49:25.724Z,1.55
2022-12-27T08:50:28.801Z,1.60
2022-12-27T08:52:44.695Z,1.70
2022-12-27T08:53:49.479Z,1.70
2022-12-27T08:54:50.986Z,2.22
2022-12-27T08:55:55.658Z,2.10
2022-12-27T08:56:57.097Z,1.77
2022-12-27T08:58:00.130Z,1.55
2022-12-27T09:00:03.989Z,1.42
2022-12-27T09:01:10.202Z,1.40
2022-12-27T09:02:12.147Z,1.60
2022-12-27T09:03:14.273Z,1.80
2022-12-27T09:04:15.754Z,1.55
2022-12-27T09:05:17.604Z,1.65
2022-12-27T09:06:21.916Z,1.70
2022-12-27T09:07:23.329Z,1.45
2022-12-27T09:08:24.740Z,1.42
2022-12-27T09:09:26.183Z,1.80
2022-12-27T09:10:27.722Z,1.73
2022-12-27T09:11:32.136Z,1.60
2022-12-27T09:12:34.421Z,1.52
2022-12-27T09:13:35.871Z,2.17
2022-12-27T09:14:37.322Z,1.52
2022-12-27T09:15:46.241Z,1.73
2022-12-27T09:16:47.788Z,1.55
2022-12-27T09:17:49.254Z,2.20
2022-12-27T09:18:53.051Z,2.47
2022-12-27T09:19:54.774Z,1.85
2022-12-27T09:20:56.342Z,1.80
2022-12-27T09:21:57.745Z,1.33
2022-12-27T09:22:59.815Z,1.35
2022-12-27T09:24:01.228Z,1.60
2022-12-27T09:25:02.839Z,1.30
2022-12-27T09:26:13.851Z,1.50
2022-12-27T09:27:15.287Z,1.40
2022-12-27T09:28:16.675Z,1.52
2022-12-27T09:29:18.356Z,1.38
2022-12-27T09:30:20.104Z,1.75
2022-12-27T09:31:22.800Z,1.45
2022-12-27T09:32:27.412Z,1.48
2022-12-27T09:33:29.254Z,1.38
2022-12-27T09:34:30.771Z,1.40
2022-12-27T09:35:38.407Z,1.40
2022-12-27T09:36:41.053Z,1.38
2022-12-27T09:37:42.475Z,1.20
2022-12-27T09:38:44.877Z,1.08
2022-12-27T09:39:46.283Z,1.10
2022-12-27T09:40:56.850Z,1.23
2022-12-27T09:44:00.268Z,1.35
2022-12-27T09:45:39.940Z,1.45
2022-12-27T09:46:48.640Z,1.70
2022-12-27T09:48:03.327Z,1.30
2022-12-27T09:49:06.376Z,1.42
2022-12-27T09:51:21.551Z,1.63
2022-12-27T09:52:29.814Z,1.50
2022-12-27T09:53:52.955Z,1.20
2022-12-27T09:55:04.992Z,1.55
2022-12-27T09:56:12.194Z,1.30
2022-12-27T09:57:37.498Z,1.38
2022-12-27T09:58:52.590Z,1.88
2022-12-27T09:59:59.380Z,2.00
2022-12-27T10:01:02.017Z,1.35
2022-12-27T10:02:21.346Z,1.40
2022-12-27T10:03:26.463Z,1.17
2022-12-27T10:04:52.992Z,1.40
2022-12-27T10:06:07.133Z,2.08
2022-12-27T10:07:31.619Z,1.52
2022-12-27T10:08:38.997Z,1.40
2022-12-27T10:09:58.825Z,1.40
2022-12-27T10:11:36.489Z,1.23
2022-12-27T10:13:00.095Z,1.20
2022-12-27T10:14:32.598Z,1.10
2022-12-27T10:15:52.486Z,1.40
2022-12-27T10:17:14.499Z,1.00
2022-12-27T10:18:30.702Z,1.23
2022-12-27T10:20:29.782Z,1.20
2022-12-27T10:21:37.698Z,1.20
2022-12-27T10:22:49.492Z,1.20
2022-12-27T10:24:01.419Z,1.10
2022-12-27T10:25:11.167Z,1.40
2022-12-27T10:26:17.902Z,1.10
2022-12-27T10:27:23.836Z,1.30
2022-12-27T10:28:43.315Z,1.40
2022-12-27T10:29:45.434Z,1.10
2022-12-27T10:30:46.926Z,1.10
2022-12-27T10:31:48.605Z,1.23
2022-12-27T10:32:50.839Z,1.40
2022-12-27T10:33:52.914Z,1.25
2022-12-27T10:35:04.672Z,1.35
2022-12-27T10:36:11.309Z,1.05
2022-12-27T10:37:16.606Z,1.23
2022-12-27T10:38:19.336Z,1.23
2022-12-27T10:39:29.022Z,2.10
2022-12-27T10:40:50.702Z,1.60
2022-12-27T10:42:18.324Z,1.50
2022-12-27T10:44:24.077Z,1.10
2022-12-27T10:45:36.456Z,1.25
2022-12-27T10:46:38.987Z,1.15
2022-12-27T10:47:40.964Z,1.38
2022-12-27T10:49:19.974Z,1.38
2022-12-27T10:50:22.934Z,1.30
2022-12-27T10:51:27.228Z,1.30
2022-12-27T10:52:34.551Z,1.50
2022-12-27T10:53:54.210Z,1.20
2022-12-27T10:54:57.022Z,1.10
2022-12-27T10:56:24.810Z,1.40
2022-12-27T10:57:27.258Z,1.30
2022-12-27T10:58:31.247Z,1.40
2022-12-27T10:59:32.743Z,1.20
2022-12-27T11:00:34.324Z,1.30
2022-12-27T11:01:35.932Z,1.35
2022-12-27T11:02:56.130Z,1.40
2022-12-27T11:04:19.716Z,1.35
2022-12-27T11:05:30.594Z,1.50
2022-12-27T11:06:32.428Z,1.70
2022-12-27T11:07:35.060Z,1.10
2022-12-27T11:08:36.805Z,1.30
2022-12-27T11:09:50.416Z,1.42
2022-12-27T11:11:13.262Z,1.20
2022-12-27T11:12:36.240Z,1.10
2022-12-27T11:13:37.729Z,1.38
2022-12-27T11:14:40.216Z,1.30
2022-12-27T11:15:44.787Z,1.15
2022-12-27T11:16:48.911Z,1.40
2022-12-27T11:17:53.757Z,1.10
2022-12-27T11:18:57.900Z,1.45
2022-12-27T11:20:03.069Z,1.67
2022-12-27T11:21:04.626Z,1.10
2022-12-27T11:22:08.411Z,1.17
2022-12-27T11:23:09.736Z,1.77
2022-12-27T11:24:16.247Z,1.08
2022-12-27T11:25:18.183Z,1.40
2022-12-27T11:26:25.797Z,1.23
2022-12-27T11:27:29.549Z,1.13
2022-12-27T11:28:33.836Z,1.10
2022-12-27T11:29:45.897Z,1.60
2022-12-27T11:30:58.751Z,1.42
2022-12-27T11:32:07.418Z,1.40
2022-12-27T11:33:27.491Z,1.38
2022-12-27T11:34:35.009Z,1.48
2022-12-27T11:35:47.802Z,1.58
2022-12-27T11:36:53.282Z,1.35
2022-12-27T11:37:55.150Z,1.08
2022-12-27T11:38:58.486Z,1.00
2022-12-27T11:40:22.418Z,1.30
2022-12-27T11:41:34.782Z,1.10
2022-12-27T11:42:45.308Z,1.30
2022-12-27T11:43:56.067Z,1.10
2022-12-27T11:45:12.207Z,1.40
2022-12-27T11:46:30.791Z,1.30
2022-12-27T11:47:53.730Z,1.35
2022-12-27T11:48:58.347Z,1.27
2022-12-27T11:50:15.335Z,1.40
2022-12-27T11:51:38.372Z,1.30
2022-12-27T11:53:04.698Z,1.27
2022-12-27T11:54:12.366Z,1.20
2022-12-27T11:55:38.291Z,1.35
2022-12-27T11:56:45.332Z,1.30
2022-12-27T11:58:12.718Z,1.30
2022-12-27T11:59:39.098Z,1.30
2022-12-27T12:01:00.561Z,1.10
2022-12-27T12:02:48.625Z,1.13
2022-12-27T12:04:21.442Z,1.17
2022-12-27T12:05:45.527Z,1.45
2022-12-27T12:07:11.319Z,1.45
2022-12-27T12:08:46.696Z,1.20
2022-12-27T12:10:29.762Z,1.30
2022-12-27T12:11:54.932Z,1.17
2022-12-27T12:13:41.548Z,1.20
2022-12-27T12:15:06.892Z,1.00
2022-12-27T12:16:26.891Z,1.38
2022-12-27T12:18:06.800Z,1.38
2022-12-27T12:20:47.031Z,1.20
2022-12-27T12:22:13.523Z,1.30
2022-12-27T12:23:42.616Z,1.95
2022-12-27T12:25:09.312Z,2.42
2022-12-27T12:26:23.858Z,1.13
2022-12-27T12:27:47.302Z,1.27
2022-12-27T12:29:11.129Z,1.02
2022-12-27T12:30:36.268Z,1.40
2022-12-27T12:31:43.821Z,1.00
2022-12-27T12:32:59.237Z,1.10
2022-12-27T12:34:36.937Z,1.10
2022-12-27T12:36:00.093Z,1.30
2022-12-27T12:37:23.486Z,1.00
2022-12-27T12:38:38.307Z,1.15
2022-12-27T12:40:02.586Z,1.30
2022-12-27T12:41:10.316Z,1.20
2022-12-27T12:42:49.537Z,1.20
2022-12-27T12:44:12.060Z,1.10
2022-12-27T12:45:31.773Z,1.30
2022-12-27T12:46:37.979Z,1.10
2022-12-27T12:48:07.824Z,1.00
2022-12-27T12:49:25.255Z,1.10
2022-12-27T12:50:41.440Z,1.05
2022-12-27T12:51:54.297Z,1.40
2022-12-27T12:53:04.154Z,1.20
2022-12-27T12:54:11.992Z,1.13
2022-12-27T12:55:26.980Z,1.20
2022-12-27T12:56:45.896Z,1.30
2022-12-27T12:58:13.551Z,1.40
2022-12-27T12:59:27.837Z,1.20
2022-12-27T13:00:51.213Z,1.00
2022-12-27T13:02:24.791Z,1.27
2022-12-27T13:05:06.011Z,1.05
2022-12-27T13:06:17.428Z,0.90
2022-12-27T13:07:40.492Z,1.77
2022-12-27T13:08:58.227Z,1.20
2022-12-27T13:10:14.445Z,1.00
2022-12-27T13:11:42.966Z,1.00
2022-12-27T13:13:21.757Z,1.10
2022-12-27T13:14:25.871Z,1.00
2022-12-27T13:15:50.229Z,1.02
2022-12-27T13:16:51.685Z,1.20
2022-12-27T13:18:09.013Z,1.05
2022-12-27T13:19:41.040Z,1.40
2022-12-27T13:21:03.887Z,1.17
2022-12-27T13:22:26.097Z,1.10
2022-12-27T13:23:55.227Z,1.10
2022-12-27T13:25:26.424Z,1.40
2022-12-27T13:26:50.490Z,1.08
2022-12-27T13:28:02.388Z,1.20
2022-12-27T13:29:27.777Z,1.00
2022-12-27T13:30:37.173Z,0.85
2022-12-27T13:31:59.404Z,1.08
2022-12-27T13:33:28.792Z,1.30
2022-12-27T13:34:47.516Z,1.00
2022-12-27T13:36:02.485Z,1.20
2022-12-27T13:37:24.337Z,1.20
2022-12-27T13:38:35.101Z,1.20
2022-12-27T13:40:08.645Z,1.10
2022-12-27T13:41:41.935Z,1.00
2022-12-27T13:43:00.307Z,1.10
2022-12-27T13:44:19.956Z,1.40
2022-12-27T13:45:59.086Z,1.70
2022-12-27T13:47:29.806Z,1.85
2022-12-27T13:48:57.764Z,1.10
2022-12-27T13:50:20.701Z,1.23
2022-12-27T13:51:42.943Z,1.10
2022-12-27T13:53:03.754Z,1.00
2022-12-27T13:54:35.587Z,1.08
2022-12-27T13:56:14.650Z,1.05
2022-12-27T13:57:30.718Z,1.08
2022-12-27T13:58:59.717Z,0.90
2022-12-27T14:00:09.053Z,1.25
2022-12-27T14:02:57.506Z,0.98
2022-12-27T14:04:05.677Z,1.10
2022-12-27T14:05:07.068Z,0.90
2022-12-27T14:06:48.943Z,1.00
2022-12-27T14:07:50.321Z,1.27
2022-12-27T14:09:25.600Z,0.90
2022-12-27T14:10:36.453Z,0.90
2022-12-27T14:11:46.737Z,0.90
2022-12-27T14:12:57.765Z,1.02
2022-12-27T14:14:01.961Z,0.88
2022-12-27T14:15:07.227Z,1.10
2022-12-27T14:16:31.291Z,1.15
2022-12-27T14:17:44.678Z,1.10
2022-12-27T14:19:18.598Z,1.05
2022-12-27T14:20:31.967Z,1.10
2022-12-27T14:21:55.189Z,0.80
2022-12-27T14:23:16.525Z,1.00
2022-12-27T14:24:40.223Z,0.90
2022-12-27T14:25:44.995Z,1.40
2022-12-27T14:27:04.260Z,1.20
2022-12-27T14:28:43.295Z,1.20
2022-12-27T14:30:19.147Z,1.08
2022-12-27T14:31:42.496Z,1.00
2022-12-27T14:33:02.264Z,1.00
2022-12-27T14:34:15.323Z,1.17
2022-12-27T14:35:48.290Z,1.10
2022-12-27T14:36:52.967Z,1.23
2022-12-27T14:38:22.615Z,1.40
2022-12-27T14:39:39.346Z,1.40
2022-12-27T14:40:56.850Z,1.05
2022-12-27T14:42:20.183Z,1.48
2022-12-27T14:43:21.582Z,1.20
2022-12-27T14:45:09.245Z,1.20
2022-12-27T14:46:37.167Z,1.20
2022-12-27T14:47:47.803Z,1.05
2022-12-27T14:49:10.516Z,1.40
2022-12-27T14:50:33.279Z,1.27
2022-12-27T14:52:02.435Z,1.23
2022-12-27T14:53:17.173Z,1.10
2022-12-27T14:54:46.019Z,3.40
2022-12-27T14:56:08.799Z,2.60
2022-12-27T14:57:34.698Z,3.42
2022-12-27T14:59:07.407Z,2.38
2022-12-27T15:00:22.677Z,1.20
2022-12-27T15:03:42.779Z,1.50
2022-12-27T15:05:01.699Z,1.30
2022-12-27T15:06:12.263Z,1.45
2022-12-27T15:07:35.136Z,1.30
2022-12-27T15:09:07.626Z,1.45
2022-12-27T15:10:12.022Z,1.60
2022-12-27T15:11:38.333Z,1.20
2022-12-27T15:12:45.646Z,1.30
2022-12-27T15:14:11.816Z,1.10
2022-12-27T15:15:44.480Z,1.17
2022-12-27T15:16:58.788Z,1.35
2022-12-27T15:18:12.435Z,1.25
2022-12-27T15:19:30.461Z,1.30
2022-12-27T15:20:47.317Z,1.45
2022-12-27T15:22:11.885Z,1.40
2022-12-27T15:23:34.615Z,1.15
2022-12-27T15:24:45.154Z,1.52
2022-12-27T15:25:59.733Z,1.45
2022-12-27T15:27:26.062Z,1.52
2022-12-27T15:28:42.879Z,1.50
2022-12-27T15:29:57.758Z,1.70
2022-12-27T15:31:06.910Z,1.60
2022-12-27T15:35:25.128Z,1.63
2022-12-27T15:36:44.913Z,1.45
2022-12-27T15:38:04.623Z,1.40
2022-12-27T15:39:26.550Z,1.30
2022-12-27T15:40:33.891Z,1.33
2022-12-27T15:41:43.788Z,1.27
2022-12-27T15:43:27.148Z,1.25
2022-12-27T15:44:43.781Z,1.33
2022-12-27T15:46:08.185Z,1.38
2022-12-27T15:47:15.798Z,1.20
2022-12-27T15:48:39.064Z,1.30
2022-12-27T15:49:46.853Z,1.70
2022-12-27T15:50:55.376Z,1.40
2022-12-27T15:52:27.131Z,1.50
2022-12-27T15:54:02.340Z,1.73
2022-12-27T15:55:19.075Z,1.52
2022-12-27T15:56:53.448Z,1.70
2022-12-27T15:58:24.275Z,1.48
2022-12-27T15:59:34.512Z,1.63
2022-12-27T16:00:36.370Z,1.65
2022-12-27T16:01:39.533Z,1.25
2022-12-27T16:02:44.025Z,1.50
2022-12-27T16:03:47.490Z,1.58